sensor_id;sensor_type;location;lat;lon;timestamp;P1;durP1;ratioP1;P2;durP2;ratioP2
78875;SDS011;68253;52.506;5.486;2023-10-31T00:01:53;9.30;;;1.00;;
78875;SDS011;68253;52.506;5.486;2023-10-31T00:04:20;5.80;;;0.50;;
78875;SDS011;68253;52.506;5.486;2023-10-31T00:06:47;6.00;;;1.00;;
78875;SDS011;68253;52.506;5.486;2023-10-31T00:09:13;5.70;;;0.70;;
78875;SDS011;68253;52.506;5.486;2023-10-31T00:11:41;4.35;;;0.60;;
78875;SDS011;68253;52.506;5.486;2023-10-31T00:14:08;5.47;;;0.80;;
78875;SDS011;68253;52.506;5.486;2023-10-31T00:16:34;5.70;;;0.70;;
78875;SDS011;68253;52.506;5.486;2023-10-31T00:19:00;6.03;;;0.60;;
78875;SDS011;68253;52.506;5.486;2023-10-31T00:21:26;4.00;;;0.55;;
78875;SDS011;68253;52.506;5.486;2023-10-31T00:23:52;4.07;;;0.50;;
78875;SDS011;68253;52.506;5.486;2023-10-31T00:26:19;4.00;;;0.40;;
78875;SDS011;68253;52.506;5.486;2023-10-31T00:28:51;4.57;;;0.63;;
78875;SDS011;68253;52.506;5.486;2023-10-31T00:31:17;2.75;;;0.50;;
78875;SDS011;68253;52.506;5.486;2023-10-31T00:33:43;6.00;;;0.90;;
78875;SDS011;68253;52.506;5.486;2023-10-31T00:36:09;5.25;;;0.80;;
78875;SDS011;68253;52.506;5.486;2023-10-31T00:38:35;2.88;;;0.60;;
78875;SDS011;68253;52.506;5.486;2023-10-31T00:41:01;6.10;;;0.90;;
78875;SDS011;68253;52.506;5.486;2023-10-31T00:43:27;7.95;;;1.20;;
78875;SDS011;68253;52.506;5.486;2023-10-31T00:45:54;4.63;;;1.00;;
78875;SDS011;68253;52.506;5.486;2023-10-31T00:48:20;6.30;;;1.25;;
78875;SDS011;68253;52.506;5.486;2023-10-31T00:50:46;5.72;;;1.10;;
78875;SDS011;68253;52.506;5.486;2023-10-31T00:53:12;6.60;;;1.52;;
78875;SDS011;68253;52.506;5.486;2023-10-31T00:55:40;4.20;;;1.15;;
78875;SDS011;68253;52.506;5.486;2023-10-31T00:58:06;5.90;;;1.55;;
78875;SDS011;68253;52.506;5.486;2023-10-31T01:00:33;7.68;;;1.80;;
78875;SDS011;68253;52.506;5.486;2023-10-31T01:02:59;8.18;;;2.13;;
78875;SDS011;68253;52.506;5.486;2023-10-31T01:05:26;10.02;;;2.72;;
78875;SDS011;68253;52.506;5.486;2023-10-31T01:07:55;8.18;;;2.00;;
78875;SDS011;68253;52.506;5.486;2023-10-31T01:10:21;8.80;;;1.77;;
78875;SDS011;68253;52.506;5.486;2023-10-31T01:12:48;8.88;;;1.67;;
78875;SDS011;68253;52.506;5.486;2023-10-31T01:15:14;7.13;;;1.42;;
78875;SDS011;68253;52.506;5.486;2023-10-31T01:17:40;7.25;;;1.80;;
78875;SDS011;68253;52.506;5.486;2023-10-31T01:20:06;5.82;;;1.10;;
78875;SDS011;68253;52.506;5.486;2023-10-31T01:22:33;6.72;;;1.27;;
78875;SDS011;68253;52.506;5.486;2023-10-31T01:24:59;6.07;;;1.00;;
78875;SDS011;68253;52.506;5.486;2023-10-31T01:27:25;7.18;;;1.02;;
78875;SDS011;68253;52.506;5.486;2023-10-31T01:29:52;4.68;;;0.70;;
78875;SDS011;68253;52.506;5.486;2023-10-31T01:32:18;5.03;;;0.80;;
78875;SDS011;68253;52.506;5.486;2023-10-31T01:34:44;4.03;;;0.70;;
78875;SDS011;68253;52.506;5.486;2023-10-31T01:37:10;6.80;;;1.00;;
78875;SDS011;68253;52.506;5.486;2023-10-31T01:39:36;5.53;;;0.70;;
78875;SDS011;68253;52.506;5.486;2023-10-31T01:42:04;4.47;;;0.88;;
78875;SDS011;68253;52.506;5.486;2023-10-31T01:44:30;5.10;;;0.88;;
78875;SDS011;68253;52.506;5.486;2023-10-31T01:46:57;4.63;;;0.85;;
78875;SDS011;68253;52.506;5.486;2023-10-31T01:49:23;4.53;;;0.90;;
78875;SDS011;68253;52.506;5.486;2023-10-31T01:51:50;11.75;;;2.05;;
78875;SDS011;68253;52.506;5.486;2023-10-31T01:54:16;8.10;;;1.75;;
78875;SDS011;68253;52.506;5.486;2023-10-31T01:56:42;10.40;;;2.53;;
78875;SDS011;68253;52.506;5.486;2023-10-31T01:59:09;9.07;;;2.25;;
78875;SDS011;68253;52.506;5.486;2023-10-31T02:01:37;9.15;;;2.03;;
78875;SDS011;68253;52.506;5.486;2023-10-31T02:04:07;11.68;;;2.33;;
78875;SDS011;68253;52.506;5.486;2023-10-31T02:06:33;9.18;;;2.15;;
78875;SDS011;68253;52.506;5.486;2023-10-31T02:08:59;11.30;;;2.13;;
78875;SDS011;68253;52.506;5.486;2023-10-31T02:11:26;6.80;;;1.60;;
78875;SDS011;68253;52.506;5.486;2023-10-31T02:13:52;8.32;;;1.90;;
78875;SDS011;68253;52.506;5.486;2023-10-31T02:16:18;7.88;;;1.70;;
78875;SDS011;68253;52.506;5.486;2023-10-31T02:18:45;8.93;;;1.83;;
78875;SDS011;68253;52.506;5.486;2023-10-31T02:21:11;9.35;;;1.92;;
78875;SDS011;68253;52.506;5.486;2023-10-31T02:23:37;8.98;;;1.92;;
78875;SDS011;68253;52.506;5.486;2023-10-31T02:26:03;9.23;;;2.05;;
78875;SDS011;68253;52.506;5.486;2023-10-31T02:28:29;9.00;;;2.30;;
78875;SDS011;68253;52.506;5.486;2023-10-31T02:30:56;14.27;;;2.80;;
78875;SDS011;68253;52.506;5.486;2023-10-31T02:33:22;8.07;;;2.08;;
78875;SDS011;68253;52.506;5.486;2023-10-31T02:35:48;7.72;;;1.85;;
78875;SDS011;68253;52.506;5.486;2023-10-31T02:38:14;12.15;;;2.33;;
78875;SDS011;68253;52.506;5.486;2023-10-31T02:40:40;7.45;;;1.80;;
78875;SDS011;68253;52.506;5.486;2023-10-31T02:43:07;11.35;;;3.03;;
78875;SDS011;68253;52.506;5.486;2023-10-31T02:45:33;7.88;;;2.40;;
78875;SDS011;68253;52.506;5.486;2023-10-31T02:47:59;8.15;;;2.58;;
78875;SDS011;68253;52.506;5.486;2023-10-31T02:50:25;10.18;;;2.78;;
78875;SDS011;68253;52.506;5.486;2023-10-31T02:52:52;10.48;;;2.78;;
78875;SDS011;68253;52.506;5.486;2023-10-31T02:55:18;13.20;;;3.15;;
78875;SDS011;68253;52.506;5.486;2023-10-31T02:57:44;10.57;;;2.53;;
78875;SDS011;68253;52.506;5.486;2023-10-31T03:00:10;9.77;;;2.70;;
78875;SDS011;68253;52.506;5.486;2023-10-31T03:02:37;11.15;;;2.40;;
78875;SDS011;68253;52.506;5.486;2023-10-31T03:05:03;9.82;;;2.25;;
78875;SDS011;68253;52.506;5.486;2023-10-31T03:07:30;7.45;;;2.08;;
78875;SDS011;68253;52.506;5.486;2023-10-31T03:09:56;7.97;;;2.03;;
78875;SDS011;68253;52.506;5.486;2023-10-31T03:12:22;8.70;;;1.85;;
78875;SDS011;68253;52.506;5.486;2023-10-31T03:14:49;7.05;;;1.40;;
78875;SDS011;68253;52.506;5.486;2023-10-31T03:17:16;8.45;;;1.80;;
78875;SDS011;68253;52.506;5.486;2023-10-31T03:19:42;11.05;;;2.20;;
78875;SDS011;68253;52.506;5.486;2023-10-31T03:22:08;8.20;;;1.73;;
78875;SDS011;68253;52.506;5.486;2023-10-31T03:24:34;5.88;;;1.20;;
78875;SDS011;68253;52.506;5.486;2023-10-31T03:27:01;9.70;;;1.30;;
78875;SDS011;68253;52.506;5.486;2023-10-31T03:29:27;6.28;;;1.17;;
78875;SDS011;68253;52.506;5.486;2023-10-31T03:31:53;5.30;;;1.10;;
78875;SDS011;68253;52.506;5.486;2023-10-31T03:34:19;5.38;;;1.17;;
78875;SDS011;68253;52.506;5.486;2023-10-31T03:36:45;7.68;;;1.10;;
78875;SDS011;68253;52.506;5.486;2023-10-31T03:39:12;3.50;;;0.70;;
78875;SDS011;68253;52.506;5.486;2023-10-31T03:41:38;3.80;;;0.50;;
78875;SDS011;68253;52.506;5.486;2023-10-31T03:44:04;3.00;;;0.75;;
78875;SDS011;68253;52.506;5.486;2023-10-31T03:46:30;5.10;;;0.63;;
78875;SDS011;68253;52.506;5.486;2023-10-31T03:48:56;4.40;;;0.65;;
78875;SDS011;68253;52.506;5.486;2023-10-31T03:51:22;2.13;;;0.47;;
78875;SDS011;68253;52.506;5.486;2023-10-31T03:53:48;4.97;;;0.77;;
78875;SDS011;68253;52.506;5.486;2023-10-31T03:56:16;4.50;;;0.93;;
78875;SDS011;68253;52.506;5.486;2023-10-31T03:58:42;5.78;;;0.90;;
78875;SDS011;68253;52.506;5.486;2023-10-31T04:01:09;3.25;;;0.80;;
78875;SDS011;68253;52.506;5.486;2023-10-31T04:03:35;4.75;;;0.60;;
78875;SDS011;68253;52.506;5.486;2023-10-31T04:06:01;6.38;;;0.75;;
78875;SDS011;68253;52.506;5.486;2023-10-31T04:08:28;3.65;;;0.40;;
78875;SDS011;68253;52.506;5.486;2023-10-31T04:10:54;3.15;;;0.30;;
78875;SDS011;68253;52.506;5.486;2023-10-31T04:13:20;1.17;;;0.30;;
78875;SDS011;68253;52.506;5.486;2023-10-31T04:15:46;2.50;;;0.38;;
78875;SDS011;68253;52.506;5.486;2023-10-31T04:18:12;4.57;;;0.52;;
78875;SDS011;68253;52.506;5.486;2023-10-31T04:20:39;3.17;;;0.60;;
78875;SDS011;68253;52.506;5.486;2023-10-31T04:23:06;3.28;;;0.40;;
78875;SDS011;68253;52.506;5.486;2023-10-31T04:25:32;3.28;;;0.38;;
78875;SDS011;68253;52.506;5.486;2023-10-31T04:27:58;3.78;;;0.55;;
78875;SDS011;68253;52.506;5.486;2023-10-31T04:30:24;4.43;;;0.40;;
78875;SDS011;68253;52.506;5.486;2023-10-31T04:32:51;4.20;;;0.50;;
78875;SDS011;68253;52.506;5.486;2023-10-31T04:35:18;3.05;;;0.50;;
78875;SDS011;68253;52.506;5.486;2023-10-31T04:37:44;2.15;;;0.30;;
78875;SDS011;68253;52.506;5.486;2023-10-31T04:40:10;2.00;;;0.40;;
78875;SDS011;68253;52.506;5.486;2023-10-31T04:42:38;5.20;;;0.60;;
78875;SDS011;68253;52.506;5.486;2023-10-31T04:45:05;4.38;;;0.47;;
78875;SDS011;68253;52.506;5.486;2023-10-31T04:47:32;2.55;;;0.40;;
78875;SDS011;68253;52.506;5.486;2023-10-31T04:49:58;4.55;;;0.35;;
78875;SDS011;68253;52.506;5.486;2023-10-31T04:52:24;1.35;;;0.30;;
78875;SDS011;68253;52.506;5.486;2023-10-31T04:54:51;2.53;;;0.60;;
78875;SDS011;68253;52.506;5.486;2023-10-31T04:57:17;1.95;;;0.30;;
78875;SDS011;68253;52.506;5.486;2023-10-31T04:59:43;1.70;;;0.20;;
78875;SDS011;68253;52.506;5.486;2023-10-31T05:02:10;2.75;;;0.35;;
78875;SDS011;68253;52.506;5.486;2023-10-31T05:04:39;1.10;;;0.25;;
78875;SDS011;68253;52.506;5.486;2023-10-31T05:07:06;1.55;;;0.30;;
78875;SDS011;68253;52.506;5.486;2023-10-31T05:09:32;3.58;;;0.35;;
78875;SDS011;68253;52.506;5.486;2023-10-31T05:11:58;2.97;;;0.20;;
78875;SDS011;68253;52.506;5.486;2023-10-31T05:14:24;2.92;;;0.30;;
78875;SDS011;68253;52.506;5.486;2023-10-31T05:16:50;3.60;;;0.43;;
78875;SDS011;68253;52.506;5.486;2023-10-31T05:19:16;2.28;;;0.30;;
78875;SDS011;68253;52.506;5.486;2023-10-31T05:21:42;3.08;;;0.20;;
78875;SDS011;68253;52.506;5.486;2023-10-31T05:24:09;3.50;;;0.30;;
78875;SDS011;68253;52.506;5.486;2023-10-31T05:26:35;1.45;;;0.28;;
78875;SDS011;68253;52.506;5.486;2023-10-31T05:29:01;2.83;;;0.45;;
78875;SDS011;68253;52.506;5.486;2023-10-31T05:31:27;0.43;;;0.13;;
78875;SDS011;68253;52.506;5.486;2023-10-31T05:33:53;4.38;;;0.40;;
78875;SDS011;68253;52.506;5.486;2023-10-31T05:36:20;3.20;;;0.30;;
78875;SDS011;68253;52.506;5.486;2023-10-31T05:38:47;3.03;;;0.20;;
78875;SDS011;68253;52.506;5.486;2023-10-31T05:41:14;2.10;;;0.30;;
78875;SDS011;68253;52.506;5.486;2023-10-31T05:43:41;1.95;;;0.25;;
78875;SDS011;68253;52.506;5.486;2023-10-31T05:46:07;2.08;;;0.17;;
78875;SDS011;68253;52.506;5.486;2023-10-31T05:48:38;2.45;;;0.20;;
78875;SDS011;68253;52.506;5.486;2023-10-31T05:51:18;4.10;;;0.30;;
78875;SDS011;68253;52.506;5.486;2023-10-31T05:53:45;1.27;;;0.25;;
78875;SDS011;68253;52.506;5.486;2023-10-31T05:56:13;3.22;;;0.30;;
78875;SDS011;68253;52.506;5.486;2023-10-31T05:58:40;3.47;;;0.30;;
78875;SDS011;68253;52.506;5.486;2023-10-31T06:01:07;3.50;;;0.40;;
78875;SDS011;68253;52.506;5.486;2023-10-31T06:03:36;2.15;;;0.40;;
78875;SDS011;68253;52.506;5.486;2023-10-31T06:06:03;3.85;;;0.88;;
78875;SDS011;68253;52.506;5.486;2023-10-31T06:08:29;2.83;;;0.32;;
78875;SDS011;68253;52.506;5.486;2023-10-31T06:10:55;1.63;;;0.20;;
78875;SDS011;68253;52.506;5.486;2023-10-31T06:13:22;3.25;;;0.30;;
78875;SDS011;68253;52.506;5.486;2023-10-31T06:15:48;2.03;;;0.22;;
78875;SDS011;68253;52.506;5.486;2023-10-31T06:18:15;1.67;;;0.20;;
78875;SDS011;68253;52.506;5.486;2023-10-31T06:20:41;3.78;;;0.45;;
78875;SDS011;68253;52.506;5.486;2023-10-31T06:23:07;0.85;;;0.20;;
78875;SDS011;68253;52.506;5.486;2023-10-31T06:25:33;3.80;;;0.45;;
78875;SDS011;68253;52.506;5.486;2023-10-31T06:27:59;1.33;;;0.30;;
78875;SDS011;68253;52.506;5.486;2023-10-31T06:30:25;2.40;;;0.38;;
78875;SDS011;68253;52.506;5.486;2023-10-31T06:32:52;2.20;;;0.30;;
78875;SDS011;68253;52.506;5.486;2023-10-31T06:35:19;2.67;;;0.43;;
78875;SDS011;68253;52.506;5.486;2023-10-31T06:37:45;2.15;;;0.32;;
78875;SDS011;68253;52.506;5.486;2023-10-31T06:40:11;5.25;;;0.60;;
78875;SDS011;68253;52.506;5.486;2023-10-31T06:42:37;2.10;;;0.45;;
78875;SDS011;68253;52.506;5.486;2023-10-31T06:45:04;4.05;;;0.60;;
78875;SDS011;68253;52.506;5.486;2023-10-31T06:47:30;5.18;;;0.77;;
78875;SDS011;68253;52.506;5.486;2023-10-31T06:49:56;5.00;;;0.90;;
78875;SDS011;68253;52.506;5.486;2023-10-31T06:52:22;4.45;;;0.85;;
78875;SDS011;68253;52.506;5.486;2023-10-31T06:54:48;5.40;;;1.10;;
78875;SDS011;68253;52.506;5.486;2023-10-31T06:57:15;5.90;;;1.20;;
78875;SDS011;68253;52.506;5.486;2023-10-31T06:59:41;3.92;;;1.00;;
78875;SDS011;68253;52.506;5.486;2023-10-31T07:02:07;7.70;;;1.20;;
78875;SDS011;68253;52.506;5.486;2023-10-31T07:04:34;5.40;;;1.17;;
78875;SDS011;68253;52.506;5.486;2023-10-31T07:07:00;5.07;;;1.10;;
78875;SDS011;68253;52.506;5.486;2023-10-31T07:09:26;6.38;;;1.27;;
78875;SDS011;68253;52.506;5.486;2023-10-31T07:11:53;3.25;;;0.90;;
78875;SDS011;68253;52.506;5.486;2023-10-31T07:14:19;5.03;;;1.00;;
78875;SDS011;68253;52.506;5.486;2023-10-31T07:16:45;3.38;;;0.60;;
78875;SDS011;68253;52.506;5.486;2023-10-31T07:19:11;4.35;;;0.60;;
78875;SDS011;68253;52.506;5.486;2023-10-31T07:21:37;7.03;;;1.02;;
78875;SDS011;68253;52.506;5.486;2023-10-31T07:24:03;3.67;;;0.75;;
78875;SDS011;68253;52.506;5.486;2023-10-31T07:26:30;4.55;;;0.88;;
78875;SDS011;68253;52.506;5.486;2023-10-31T07:28:56;4.03;;;0.88;;
78875;SDS011;68253;52.506;5.486;2023-10-31T07:31:22;4.40;;;0.57;;
78875;SDS011;68253;52.506;5.486;2023-10-31T07:33:48;5.00;;;0.70;;
78875;SDS011;68253;52.506;5.486;2023-10-31T07:36:14;4.65;;;0.70;;
78875;SDS011;68253;52.506;5.486;2023-10-31T07:38:40;4.45;;;0.80;;
78875;SDS011;68253;52.506;5.486;2023-10-31T07:41:07;3.13;;;0.80;;
78875;SDS011;68253;52.506;5.486;2023-10-31T07:43:33;3.78;;;0.70;;
78875;SDS011;68253;52.506;5.486;2023-10-31T07:45:59;5.07;;;0.75;;
78875;SDS011;68253;52.506;5.486;2023-10-31T07:48:25;6.38;;;0.70;;
78875;SDS011;68253;52.506;5.486;2023-10-31T07:50:51;6.32;;;1.00;;
78875;SDS011;68253;52.506;5.486;2023-10-31T07:53:17;6.47;;;0.93;;
78875;SDS011;68253;52.506;5.486;2023-10-31T07:55:43;5.47;;;1.40;;
78875;SDS011;68253;52.506;5.486;2023-10-31T07:58:09;5.55;;;1.45;;
78875;SDS011;68253;52.506;5.486;2023-10-31T08:00:36;6.22;;;1.30;;
78875;SDS011;68253;52.506;5.486;2023-10-31T08:03:04;6.75;;;1.98;;
78875;SDS011;68253;52.506;5.486;2023-10-31T08:05:30;7.05;;;1.55;;
78875;SDS011;68253;52.506;5.486;2023-10-31T08:07:56;6.72;;;1.83;;
78875;SDS011;68253;52.506;5.486;2023-10-31T08:10:23;8.93;;;1.63;;
78875;SDS011;68253;52.506;5.486;2023-10-31T08:12:52;5.28;;;1.70;;
78875;SDS011;68253;52.506;5.486;2023-10-31T08:15:19;7.18;;;1.88;;
78875;SDS011;68253;52.506;5.486;2023-10-31T08:17:45;6.47;;;2.00;;
78875;SDS011;68253;52.506;5.486;2023-10-31T08:20:11;7.60;;;2.05;;
78875;SDS011;68253;52.506;5.486;2023-10-31T08:22:39;6.28;;;2.10;;
78875;SDS011;68253;52.506;5.486;2023-10-31T08:25:08;6.20;;;1.88;;
78875;SDS011;68253;52.506;5.486;2023-10-31T08:27:34;6.47;;;2.10;;
78875;SDS011;68253;52.506;5.486;2023-10-31T08:30:00;7.65;;;1.83;;
78875;SDS011;68253;52.506;5.486;2023-10-31T08:32:27;7.57;;;2.10;;
78875;SDS011;68253;52.506;5.486;2023-10-31T08:34:54;7.13;;;2.20;;
78875;SDS011;68253;52.506;5.486;2023-10-31T08:37:21;6.97;;;1.92;;
78875;SDS011;68253;52.506;5.486;2023-10-31T08:39:47;8.15;;;2.25;;
78875;SDS011;68253;52.506;5.486;2023-10-31T08:42:14;8.73;;;1.80;;
78875;SDS011;68253;52.506;5.486;2023-10-31T08:44:40;8.98;;;1.63;;
78875;SDS011;68253;52.506;5.486;2023-10-31T08:47:07;5.25;;;1.40;;
78875;SDS011;68253;52.506;5.486;2023-10-31T08:49:33;9.23;;;2.30;;
78875;SDS011;68253;52.506;5.486;2023-10-31T08:51:59;8.32;;;2.00;;
78875;SDS011;68253;52.506;5.486;2023-10-31T08:54:27;6.45;;;1.70;;
78875;SDS011;68253;52.506;5.486;2023-10-31T08:56:53;9.27;;;1.88;;
78875;SDS011;68253;52.506;5.486;2023-10-31T08:59:19;6.20;;;1.63;;
78875;SDS011;68253;52.506;5.486;2023-10-31T09:01:45;5.88;;;1.60;;
78875;SDS011;68253;52.506;5.486;2023-10-31T09:04:12;6.88;;;1.50;;
78875;SDS011;68253;52.506;5.486;2023-10-31T09:06:38;5.80;;;1.20;;
78875;SDS011;68253;52.506;5.486;2023-10-31T09:09:04;5.20;;;1.20;;
78875;SDS011;68253;52.506;5.486;2023-10-31T09:11:30;7.60;;;1.50;;
78875;SDS011;68253;52.506;5.486;2023-10-31T09:13:56;5.70;;;1.20;;
78875;SDS011;68253;52.506;5.486;2023-10-31T09:16:22;3.60;;;1.02;;
78875;SDS011;68253;52.506;5.486;2023-10-31T09:18:48;6.03;;;0.93;;
78875;SDS011;68253;52.506;5.486;2023-10-31T09:21:14;5.45;;;1.13;;
78875;SDS011;68253;52.506;5.486;2023-10-31T09:23:40;4.43;;;1.13;;
78875;SDS011;68253;52.506;5.486;2023-10-31T09:26:06;4.95;;;1.00;;
78875;SDS011;68253;52.506;5.486;2023-10-31T09:28:33;5.25;;;1.25;;
78875;SDS011;68253;52.506;5.486;2023-10-31T09:30:59;5.05;;;0.85;;
78875;SDS011;68253;52.506;5.486;2023-10-31T09:33:26;5.38;;;1.00;;
78875;SDS011;68253;52.506;5.486;2023-10-31T09:35:52;4.85;;;0.98;;
78875;SDS011;68253;52.506;5.486;2023-10-31T09:38:18;5.68;;;1.02;;
78875;SDS011;68253;52.506;5.486;2023-10-31T09:40:44;4.72;;;1.10;;
78875;SDS011;68253;52.506;5.486;2023-10-31T09:43:11;4.13;;;1.00;;
78875;SDS011;68253;52.506;5.486;2023-10-31T09:45:37;5.57;;;1.10;;
78875;SDS011;68253;52.506;5.486;2023-10-31T09:48:03;5.38;;;1.30;;
78875;SDS011;68253;52.506;5.486;2023-10-31T09:50:29;5.38;;;1.00;;
78875;SDS011;68253;52.506;5.486;2023-10-31T09:52:56;6.15;;;1.48;;
78875;SDS011;68253;52.506;5.486;2023-10-31T09:55:25;5.03;;;1.42;;
78875;SDS011;68253;52.506;5.486;2023-10-31T09:57:51;6.65;;;1.00;;
78875;SDS011;68253;52.506;5.486;2023-10-31T10:00:18;6.63;;;1.30;;
78875;SDS011;68253;52.506;5.486;2023-10-31T10:02:44;5.20;;;1.08;;
78875;SDS011;68253;52.506;5.486;2023-10-31T10:05:10;4.38;;;0.88;;
78875;SDS011;68253;52.506;5.486;2023-10-31T10:07:41;6.25;;;1.23;;
78875;SDS011;68253;52.506;5.486;2023-10-31T10:10:12;6.40;;;1.10;;
78875;SDS011;68253;52.506;5.486;2023-10-31T10:12:40;6.50;;;1.17;;
78875;SDS011;68253;52.506;5.486;2023-10-31T10:15:10;5.18;;;1.15;;
78875;SDS011;68253;52.506;5.486;2023-10-31T10:17:37;4.78;;;0.90;;
78875;SDS011;68253;52.506;5.486;2023-10-31T10:22:36;5.75;;;0.80;;
78875;SDS011;68253;52.506;5.486;2023-10-31T10:25:08;7.28;;;0.80;;
78875;SDS011;68253;52.506;5.486;2023-10-31T10:27:37;4.22;;;0.50;;
78875;SDS011;68253;52.506;5.486;2023-10-31T10:30:04;4.40;;;0.70;;
78875;SDS011;68253;52.506;5.486;2023-10-31T10:32:31;1.85;;;0.40;;
78875;SDS011;68253;52.506;5.486;2023-10-31T10:34:57;4.53;;;0.73;;
78875;SDS011;68253;52.506;5.486;2023-10-31T10:37:23;2.90;;;0.50;;
78875;SDS011;68253;52.506;5.486;2023-10-31T10:39:51;3.40;;;0.50;;
78875;SDS011;68253;52.506;5.486;2023-10-31T10:42:32;5.43;;;0.57;;
78875;SDS011;68253;52.506;5.486;2023-10-31T10:45:01;6.28;;;0.70;;
78875;SDS011;68253;52.506;5.486;2023-10-31T10:47:29;2.15;;;0.32;;
78875;SDS011;68253;52.506;5.486;2023-10-31T10:49:59;4.78;;;0.50;;
78875;SDS011;68253;52.506;5.486;2023-10-31T10:52:38;2.72;;;0.43;;
78875;SDS011;68253;52.506;5.486;2023-10-31T10:55:19;6.32;;;0.60;;
78875;SDS011;68253;52.506;5.486;2023-10-31T11:00:22;3.90;;;0.50;;
78875;SDS011;68253;52.506;5.486;2023-10-31T11:02:53;2.95;;;0.52;;
78875;SDS011;68253;52.506;5.486;2023-10-31T11:05:20;2.15;;;0.30;;
78875;SDS011;68253;52.506;5.486;2023-10-31T11:07:46;4.20;;;0.40;;
78875;SDS011;68253;52.506;5.486;2023-10-31T11:10:14;2.20;;;0.30;;
78875;SDS011;68253;52.506;5.486;2023-10-31T11:12:40;5.63;;;0.45;;
78875;SDS011;68253;52.506;5.486;2023-10-31T11:15:08;5.43;;;0.40;;
78875;SDS011;68253;52.506;5.486;2023-10-31T11:17:39;2.33;;;0.20;;
78875;SDS011;68253;52.506;5.486;2023-10-31T11:20:09;5.05;;;0.35;;
78875;SDS011;68253;52.506;5.486;2023-10-31T11:22:37;2.90;;;0.40;;
78875;SDS011;68253;52.506;5.486;2023-10-31T11:25:04;2.22;;;0.30;;
78875;SDS011;68253;52.506;5.486;2023-10-31T11:27:33;3.70;;;0.40;;
78875;SDS011;68253;52.506;5.486;2023-10-31T11:30:01;2.63;;;0.40;;
78875;SDS011;68253;52.506;5.486;2023-10-31T11:32:31;2.50;;;0.22;;
78875;SDS011;68253;52.506;5.486;2023-10-31T11:34:57;1.45;;;0.35;;
78875;SDS011;68253;52.506;5.486;2023-10-31T11:37:25;3.40;;;0.30;;
78875;SDS011;68253;52.506;5.486;2023-10-31T11:42:51;1.63;;;0.20;;
78875;SDS011;68253;52.506;5.486;2023-10-31T11:45:25;3.97;;;0.40;;
78875;SDS011;68253;52.506;5.486;2023-10-31T11:48:14;4.32;;;0.30;;
78875;SDS011;68253;52.506;5.486;2023-10-31T11:50:40;3.80;;;0.52;;
78875;SDS011;68253;52.506;5.486;2023-10-31T11:53:08;2.38;;;0.22;;
78875;SDS011;68253;52.506;5.486;2023-10-31T11:55:44;3.42;;;0.35;;
78875;SDS011;68253;52.506;5.486;2023-10-31T11:58:19;2.85;;;0.30;;
78875;SDS011;68253;52.506;5.486;2023-10-31T12:00:47;3.63;;;0.40;;
78875;SDS011;68253;52.506;5.486;2023-10-31T12:03:15;1.98;;;0.30;;
78875;SDS011;68253;52.506;5.486;2023-10-31T12:05:59;2.72;;;0.40;;
78875;SDS011;68253;52.506;5.486;2023-10-31T12:08:29;3.03;;;0.30;;
78875;SDS011;68253;52.506;5.486;2023-10-31T12:13:40;2.00;;;0.45;;
78875;SDS011;68253;52.506;5.486;2023-10-31T12:16:08;1.33;;;0.20;;
78875;SDS011;68253;52.506;5.486;2023-10-31T12:18:35;1.58;;;0.28;;
78875;SDS011;68253;52.506;5.486;2023-10-31T12:21:02;2.65;;;0.35;;
78875;SDS011;68253;52.506;5.486;2023-10-31T12:23:28;3.70;;;0.30;;
78875;SDS011;68253;52.506;5.486;2023-10-31T12:25:55;1.27;;;0.15;;
78875;SDS011;68253;52.506;5.486;2023-10-31T12:28:22;1.55;;;0.20;;
78875;SDS011;68253;52.506;5.486;2023-10-31T12:30:50;2.15;;;0.30;;
78875;SDS011;68253;52.506;5.486;2023-10-31T12:33:20;1.88;;;0.13;;
78875;SDS011;68253;52.506;5.486;2023-10-31T12:35:51;1.65;;;0.20;;
78875;SDS011;68253;52.506;5.486;2023-10-31T12:38:21;3.60;;;0.30;;
78875;SDS011;68253;52.506;5.486;2023-10-31T12:40:48;1.08;;;0.10;;
78875;SDS011;68253;52.506;5.486;2023-10-31T12:43:15;4.07;;;0.28;;
78875;SDS011;68253;52.506;5.486;2023-10-31T12:45:42;3.20;;;0.30;;
78875;SDS011;68253;52.506;5.486;2023-10-31T12:48:10;3.28;;;0.30;;
78875;SDS011;68253;52.506;5.486;2023-10-31T12:50:38;1.35;;;0.20;;
78875;SDS011;68253;52.506;5.486;2023-10-31T12:53:08;4.22;;;0.60;;
78875;SDS011;68253;52.506;5.486;2023-10-31T12:55:41;2.85;;;0.30;;
78875;SDS011;68253;52.506;5.486;2023-10-31T12:58:07;2.13;;;0.13;;
78875;SDS011;68253;52.506;5.486;2023-10-31T13:00:40;2.35;;;0.30;;
78875;SDS011;68253;52.506;5.486;2023-10-31T13:03:08;2.05;;;0.30;;
78875;SDS011;68253;52.506;5.486;2023-10-31T13:05:34;1.20;;;0.20;;
78875;SDS011;68253;52.506;5.486;2023-10-31T13:08:01;2.00;;;0.40;;
78875;SDS011;68253;52.506;5.486;2023-10-31T13:10:30;1.90;;;0.10;;
78875;SDS011;68253;52.506;5.486;2023-10-31T13:12:59;4.20;;;0.50;;
78875;SDS011;68253;52.506;5.486;2023-10-31T13:15:25;2.58;;;0.22;;
78875;SDS011;68253;52.506;5.486;2023-10-31T13:17:51;1.40;;;0.17;;
78875;SDS011;68253;52.506;5.486;2023-10-31T13:20:19;1.30;;;0.20;;
78875;SDS011;68253;52.506;5.486;2023-10-31T13:22:46;1.63;;;0.30;;
78875;SDS011;68253;52.506;5.486;2023-10-31T13:25:13;3.45;;;0.35;;
78875;SDS011;68253;52.506;5.486;2023-10-31T13:27:40;1.48;;;0.38;;
78875;SDS011;68253;52.506;5.486;2023-10-31T13:30:09;1.38;;;0.20;;
78875;SDS011;68253;52.506;5.486;2023-10-31T13:32:39;1.33;;;0.20;;
78875;SDS011;68253;52.506;5.486;2023-10-31T13:35:06;1.65;;;0.30;;
78875;SDS011;68253;52.506;5.486;2023-10-31T13:37:36;2.83;;;0.30;;
78875;SDS011;68253;52.506;5.486;2023-10-31T13:40:03;1.77;;;0.10;;
78875;SDS011;68253;52.506;5.486;2023-10-31T13:42:29;1.25;;;0.15;;
78875;SDS011;68253;52.506;5.486;2023-10-31T13:44:56;2.20;;;0.20;;
78875;SDS011;68253;52.506;5.486;2023-10-31T13:47:22;1.30;;;0.30;;
78875;SDS011;68253;52.506;5.486;2023-10-31T13:49:48;1.48;;;0.28;;
78875;SDS011;68253;52.506;5.486;2023-10-31T13:52:14;3.00;;;0.28;;
78875;SDS011;68253;52.506;5.486;2023-10-31T13:54:41;1.10;;;0.17;;
78875;SDS011;68253;52.506;5.486;2023-10-31T13:57:07;2.25;;;0.10;;
78875;SDS011;68253;52.506;5.486;2023-10-31T13:59:33;1.52;;;0.15;;
78875;SDS011;68253;52.506;5.486;2023-10-31T14:02:00;3.03;;;0.20;;
78875;SDS011;68253;52.506;5.486;2023-10-31T14:04:26;1.35;;;0.20;;
78875;SDS011;68253;52.506;5.486;2023-10-31T14:06:54;2.90;;;0.38;;
78875;SDS011;68253;52.506;5.486;2023-10-31T14:09:20;2.88;;;0.30;;
78875;SDS011;68253;52.506;5.486;2023-10-31T14:11:46;1.73;;;0.32;;
78875;SDS011;68253;52.506;5.486;2023-10-31T14:14:13;2.88;;;0.30;;
78875;SDS011;68253;52.506;5.486;2023-10-31T14:16:40;1.23;;;0.28;;
78875;SDS011;68253;52.506;5.486;2023-10-31T14:19:06;3.92;;;0.30;;
78875;SDS011;68253;52.506;5.486;2023-10-31T14:21:33;1.75;;;0.20;;
78875;SDS011;68253;52.506;5.486;2023-10-31T14:24:00;2.05;;;0.30;;
78875;SDS011;68253;52.506;5.486;2023-10-31T14:26:29;1.83;;;0.40;;
78875;SDS011;68253;52.506;5.486;2023-10-31T14:28:55;1.23;;;0.30;;
78875;SDS011;68253;52.506;5.486;2023-10-31T14:31:22;2.67;;;0.20;;
78875;SDS011;68253;52.506;5.486;2023-10-31T14:33:48;3.15;;;0.30;;
78875;SDS011;68253;52.506;5.486;2023-10-31T14:36:14;1.27;;;0.20;;
78875;SDS011;68253;52.506;5.486;2023-10-31T14:38:40;2.38;;;0.50;;
